createdAt,value
2023-02-25T00:00:44.438Z,1.80
2023-02-25T00:03:11.924Z,1.73
2023-02-25T00:05:46.453Z,1.52
2023-02-25T00:08:13.263Z,2.13
2023-02-25T00:10:46.480Z,1.65
2023-02-25T00:13:18.353Z,1.67
2023-02-25T00:15:51.467Z,1.70
2023-02-25T00:18:18.213Z,1.85
2023-02-25T00:20:54.570Z,1.75
2023-02-25T00:23:21.320Z,1.75
2023-02-25T00:25:54.492Z,1.88
2023-02-25T00:28:21.572Z,1.70
2023-02-25T00:30:57.867Z,1.92
2023-02-25T00:33:31.476Z,2.05
2023-02-25T00:35:58.241Z,2.00
2023-02-25T00:38:31.517Z,1.48
2023-02-25T00:40:58.292Z,1.40
2023-02-25T00:43:31.535Z,1.55
2023-02-25T00:45:59.339Z,1.67
2023-02-25T00:48:26.139Z,1.45
2023-02-25T00:50:59.550Z,2.13
2023-02-25T00:53:34.516Z,2.28
2023-02-25T00:56:01.904Z,2.20
2023-02-25T00:58:35.541Z,1.70
2023-02-25T01:01:02.852Z,2.13
2023-02-25T01:03:37.527Z,2.10
2023-02-25T01:06:04.850Z,2.10
2023-02-25T01:08:32.019Z,2.08
2023-02-25T01:11:05.593Z,1.80
2023-02-25T01:13:36.479Z,2.63
2023-02-25T01:16:21.116Z,1.70
2023-02-25T01:18:51.536Z,1.90
2023-02-25T01:21:33.570Z,2.13
2023-02-25T01:24:18.563Z,1.85
2023-02-25T01:26:47.051Z,2.00
2023-02-25T01:29:26.568Z,1.80
2023-02-25T01:31:55.296Z,2.38
2023-02-25T01:34:23.227Z,2.20
2023-02-25T01:36:56.641Z,2.03
2023-02-25T01:39:26.533Z,2.15
2023-02-25T01:42:02.583Z,2.28
2023-02-25T01:44:44.597Z,3.17
2023-02-25T01:47:20.600Z,2.28
2023-02-25T01:49:53.744Z,3.20
2023-02-25T01:52:23.503Z,2.33
2023-02-25T01:55:00.649Z,2.88
2023-02-25T01:57:27.418Z,2.58
2023-02-25T02:00:01.676Z,2.65
2023-02-25T02:02:34.106Z,3.33
2023-02-25T02:05:07.666Z,3.72
2023-02-25T02:07:34.554Z,2.88
2023-02-25T02:10:08.639Z,2.53
2023-02-25T02:12:39.458Z,2.13
2023-02-25T02:15:19.665Z,2.42
2023-02-25T02:17:58.696Z,3.10
2023-02-25T02:21:09.633Z,2.47
2023-02-25T02:24:03.905Z,2.55
2023-02-25T02:26:55.653Z,2.70
2023-02-25T02:29:53.987Z,2.78
2023-02-25T02:32:37.761Z,2.22
2023-02-25T02:35:18.241Z,3.20
2023-02-25T02:38:15.651Z,2.58
2023-02-25T02:40:51.146Z,3.38
2023-02-25T02:43:57.718Z,3.17
2023-02-25T02:46:27.126Z,3.38
2023-02-25T02:49:17.674Z,4.03
2023-02-25T02:51:51.906Z,3.55
2023-02-25T02:54:26.660Z,2.58
2023-02-25T02:57:02.731Z,3.33
2023-02-25T02:59:42.831Z,3.40
2023-02-25T03:02:23.965Z,3.13
2023-02-25T03:05:02.690Z,3.22
2023-02-25T03:07:40.729Z,3.40
2023-02-25T03:10:09.880Z,2.80
2023-02-25T03:12:45.745Z,2.67
2023-02-25T03:15:20.733Z,3.75
2023-02-25T03:17:54.565Z,3.92
2023-02-25T03:20:33.723Z,3.95
2023-02-25T03:25:53.772Z,3.77
2023-02-25T03:28:20.469Z,3.92
2023-02-25T03:31:05.822Z,4.03
2023-02-25T03:33:44.762Z,3.33
2023-02-25T03:36:16.971Z,3.20
2023-02-25T03:38:54.804Z,2.80
2023-02-25T03:41:31.788Z,2.95
2023-02-25T03:43:59.793Z,3.28
2023-02-25T03:46:34.784Z,3.20
2023-02-25T03:49:04.191Z,3.38
2023-02-25T03:51:41.863Z,3.97
2023-02-25T03:54:15.800Z,3.00
2023-02-25T03:56:48.827Z,3.33
2023-02-25T03:59:22.850Z,3.47
2023-02-25T04:01:58.822Z,3.95
2023-02-25T04:04:25.745Z,3.28
2023-02-25T04:07:02.860Z,3.58
2023-02-25T04:09:29.606Z,3.00
2023-02-25T04:12:03.832Z,3.17
2023-02-25T04:14:30.643Z,3.30
2023-02-25T04:16:57.763Z,3.03
2023-02-25T04:19:30.849Z,3.45
2023-02-25T04:21:57.882Z,2.90
2023-02-25T04:24:30.830Z,2.53
2023-02-25T04:26:58.670Z,3.17
2023-02-25T04:29:32.878Z,4.15
2023-02-25T04:32:09.969Z,2.72
2023-02-25T04:34:43.829Z,2.70
2023-02-25T04:37:16.868Z,2.67
2023-02-25T04:39:44.359Z,2.22
2023-02-25T04:42:17.844Z,2.38
2023-02-25T04:44:50.953Z,2.42
2023-02-25T04:47:30.902Z,3.30
2023-02-25T04:49:57.796Z,3.15
2023-02-25T04:52:37.866Z,3.30
2023-02-25T04:55:05.485Z,2.80
2023-02-25T04:57:38.894Z,2.65
2023-02-25T05:00:09.173Z,2.95
2023-02-25T05:02:42.980Z,2.75
2023-02-25T05:05:11.178Z,2.03
2023-02-25T05:07:40.288Z,2.42
2023-02-25T05:10:21.885Z,2.85
2023-02-25T05:12:51.689Z,2.92
2023-02-25T05:15:25.943Z,3.17
2023-02-25T05:17:52.798Z,2.95
2023-02-25T05:20:19.837Z,2.30
2023-02-25T05:23:01.938Z,2.53
2023-02-25T05:25:34.961Z,2.92
2023-02-25T05:28:18.008Z,2.15
2023-02-25T05:30:46.943Z,3.33
2023-02-25T05:33:19.955Z,2.85
2023-02-25T05:35:59.947Z,2.50
2023-02-25T05:38:28.217Z,2.60
2023-02-25T05:41:06.996Z,2.42
2023-02-25T05:43:48.990Z,2.03
2023-02-25T05:46:16.368Z,2.88
2023-02-25T05:48:48.367Z,2.55
2023-02-25T05:51:25.020Z,2.60
2023-02-25T05:53:58.969Z,2.60
2023-02-25T05:56:33.949Z,2.25
2023-02-25T05:59:08.028Z,2.40
2023-02-25T06:01:40.973Z,2.20
2023-02-25T06:04:17.023Z,2.35
2023-02-25T06:06:57.000Z,2.30
2023-02-25T06:09:23.896Z,3.05
2023-02-25T06:11:57.005Z,2.40
2023-02-25T06:14:24.064Z,2.55
2023-02-25T06:16:58.054Z,2.35
2023-02-25T06:19:32.980Z,3.17
2023-02-25T06:21:59.793Z,2.92
2023-02-25T06:24:33.075Z,3.75
2023-02-25T06:27:13.065Z,2.80
2023-02-25T06:29:48.002Z,3.20
2023-02-25T06:32:22.152Z,2.88
2023-02-25T06:34:56.001Z,2.50
2023-02-25T06:37:22.981Z,2.75
2023-02-25T06:39:59.039Z,3.25
2023-02-25T06:42:25.792Z,3.00
2023-02-25T06:44:59.040Z,2.75
2023-02-25T06:47:34.062Z,3.10
2023-02-25T06:50:08.091Z,3.28
2023-02-25T06:52:37.189Z,3.70
2023-02-25T06:55:13.027Z,3.45
2023-02-25T06:57:39.756Z,3.10
2023-02-25T07:00:14.053Z,3.30
2023-02-25T07:02:52.095Z,3.15
2023-02-25T07:05:18.905Z,3.72
2023-02-25T07:07:53.071Z,3.22
2023-02-25T07:10:19.927Z,3.33
2023-02-25T07:12:53.104Z,3.45
2023-02-25T07:15:21.404Z,2.63
2023-02-25T07:18:00.112Z,2.63
2023-02-25T07:20:33.075Z,3.88
2023-02-25T07:23:03.159Z,2.95
2023-02-25T07:25:30.981Z,3.22
2023-02-25T07:28:04.099Z,3.30
2023-02-25T07:30:30.887Z,3.65
2023-02-25T07:33:05.895Z,3.10
2023-02-25T07:35:41.125Z,4.30
2023-02-25T07:38:15.139Z,3.25
2023-02-25T07:40:41.986Z,2.97
2023-02-25T07:43:08.876Z,3.78
2023-02-25T07:45:42.187Z,2.95
2023-02-25T07:48:08.999Z,3.97
2023-02-25T07:50:43.153Z,3.10
2023-02-25T07:53:09.980Z,3.80
2023-02-25T07:55:43.156Z,3.42
2023-02-25T07:58:11.454Z,3.10
2023-02-25T08:00:45.191Z,3.38
2023-02-25T08:03:12.370Z,3.03
2023-02-25T08:05:46.168Z,2.90
2023-02-25T08:08:13.224Z,2.97
2023-02-25T08:10:46.187Z,4.13
2023-02-25T08:13:20.303Z,2.65
2023-02-25T08:15:47.292Z,3.10
2023-02-25T08:18:26.219Z,3.00
2023-02-25T08:21:03.077Z,2.90
2023-02-25T08:23:37.195Z,3.53
2023-02-25T08:26:11.205Z,2.78
2023-02-25T08:28:39.586Z,2.30
2023-02-25T08:31:17.313Z,2.67
2023-02-25T08:33:49.439Z,3.53
2023-02-25T08:36:31.257Z,2.28
2023-02-25T08:38:59.604Z,4.70
2023-02-25T08:41:34.297Z,3.67
2023-02-25T08:44:01.955Z,2.90
2023-02-25T08:46:37.299Z,2.88
2023-02-25T08:49:05.040Z,2.17
2023-02-25T08:51:36.658Z,1.50
2023-02-25T08:54:13.320Z,1.27
2023-02-25T08:56:47.530Z,1.60
2023-02-25T08:59:22.266Z,1.00
2023-02-25T09:01:50.396Z,1.80
2023-02-25T09:04:29.311Z,1.40
2023-02-25T09:06:58.405Z,1.35
2023-02-25T09:09:25.510Z,1.67
2023-02-25T09:11:59.290Z,1.55
2023-02-25T09:14:26.134Z,1.63
2023-02-25T09:17:04.256Z,1.65
2023-02-25T09:19:32.235Z,1.70
2023-02-25T09:22:06.302Z,2.15
2023-02-25T09:24:33.478Z,2.15
2023-02-25T09:27:14.316Z,1.90
2023-02-25T09:29:41.599Z,1.70
2023-02-25T09:32:15.424Z,1.70
2023-02-25T09:34:48.331Z,1.83
2023-02-25T09:37:28.333Z,2.05
2023-02-25T09:39:55.196Z,2.10
2023-02-25T09:42:45.311Z,2.38
2023-02-25T09:45:24.344Z,2.53
2023-02-25T09:47:59.908Z,1.95
2023-02-25T09:50:44.308Z,1.98
2023-02-25T09:53:31.936Z,1.45
2023-02-25T09:56:05.351Z,1.10
2023-02-25T09:58:40.864Z,1.13
2023-02-25T10:01:17.402Z,1.23
2023-02-25T10:04:19.357Z,1.20
2023-02-25T10:07:02.383Z,1.20
2023-02-25T10:10:09.458Z,1.15
2023-02-25T10:12:59.395Z,1.30
2023-02-25T10:15:52.137Z,0.80
2023-02-25T10:18:41.437Z,0.90
2023-02-25T10:21:42.876Z,1.15
2023-02-25T10:24:45.504Z,0.95
2023-02-25T10:27:41.599Z,1.25
2023-02-25T10:30:18.415Z,1.20
2023-02-25T10:32:49.027Z,1.08
2023-02-25T10:35:27.393Z,1.40
2023-02-25T10:37:54.704Z,0.98
2023-02-25T10:40:31.426Z,1.17
2023-02-25T10:43:02.754Z,0.70
2023-02-25T10:45:38.562Z,1.00
2023-02-25T10:48:25.650Z,1.07
2023-02-25T10:51:09.476Z,0.70
2023-02-25T10:53:36.371Z,1.30
2023-02-25T10:56:10.471Z,1.15
2023-02-25T10:58:41.294Z,1.52
2023-02-25T11:01:23.063Z,1.90
2023-02-25T11:04:00.041Z,2.33
2023-02-25T11:06:44.496Z,1.70
2023-02-25T11:09:35.307Z,1.30
2023-02-25T11:12:26.565Z,1.50
2023-02-25T11:14:53.399Z,1.00
2023-02-25T11:17:27.635Z,0.90
2023-02-25T11:20:07.481Z,1.05
2023-02-25T11:22:49.534Z,1.30
2023-02-25T11:25:19.346Z,1.00
2023-02-25T11:28:01.502Z,0.90
2023-02-25T11:30:38.866Z,1.17
2023-02-25T11:33:38.493Z,0.60
2023-02-25T11:36:07.809Z,1.10
2023-02-25T11:38:43.487Z,1.00
2023-02-25T11:41:27.523Z,1.10
2023-02-25T11:44:02.624Z,1.55
2023-02-25T11:46:32.704Z,1.67
2023-02-25T11:49:25.548Z,1.13
2023-02-25T11:52:07.492Z,1.15
2023-02-25T11:54:52.538Z,1.23
2023-02-25T11:57:38.949Z,1.02
2023-02-25T12:00:44.502Z,1.30
2023-02-25T12:03:45.369Z,1.30
2023-02-25T12:06:28.548Z,1.23
2023-02-25T12:09:08.765Z,1.60
2023-02-25T12:12:30.572Z,1.45
2023-02-25T12:15:30.544Z,1.40
2023-02-25T12:18:40.262Z,0.75
2023-02-25T12:21:38.595Z,1.33
2023-02-25T12:24:26.556Z,1.30
2023-02-25T12:27:16.603Z,1.10
2023-02-25T12:30:05.231Z,1.20
2023-02-25T12:32:56.597Z,1.95
2023-02-25T12:35:47.999Z,2.28
2023-02-25T12:38:58.586Z,1.65
2023-02-25T12:41:38.831Z,1.30
2023-02-25T12:44:27.587Z,1.40
2023-02-25T12:47:21.793Z,1.90
2023-02-25T12:49:58.599Z,1.98
2023-02-25T12:52:47.768Z,2.33
2023-02-25T12:55:42.639Z,2.10
2023-02-25T12:58:43.658Z,1.45
2023-02-25T13:01:25.841Z,1.30
2023-02-25T13:03:58.858Z,1.73
2023-02-25T13:06:32.647Z,1.92
2023-02-25T13:09:05.560Z,1.77
2023-02-25T13:12:13.050Z,1.85
2023-02-25T13:15:04.251Z,1.50
2023-02-25T13:17:46.676Z,1.52
2023-02-25T13:20:57.770Z,2.13
2023-02-25T13:24:00.727Z,1.50
2023-02-25T13:26:43.473Z,1.55
2023-02-25T13:29:53.706Z,1.30
2023-02-25T13:32:24.258Z,3.60
2023-02-25T13:35:17.837Z,1.90
2023-02-25T13:37:59.932Z,1.20
2023-02-25T13:40:57.685Z,1.67
2023-02-25T13:43:55.741Z,1.65
2023-02-25T13:46:42.119Z,1.48
2023-02-25T13:49:15.697Z,1.50
2023-02-25T13:52:21.042Z,1.40
2023-02-25T13:55:31.701Z,1.13
2023-02-25T13:58:26.693Z,1.55
2023-02-25T14:01:48.740Z,1.73
2023-02-25T14:04:33.256Z,1.55
2023-02-25T14:07:26.754Z,1.23
2023-02-25T14:10:24.785Z,1.95
2023-02-25T14:13:25.917Z,1.90
2023-02-25T14:16:35.764Z,2.25
2023-02-25T14:19:20.784Z,1.92
2023-02-25T14:22:28.485Z,1.40
2023-02-25T14:25:24.764Z,1.83
2023-02-25T14:28:06.400Z,2.15
2023-02-25T14:31:27.193Z,1.80
2023-02-25T14:34:42.804Z,1.42
2023-02-25T14:37:31.696Z,1.52
2023-02-25T14:40:23.845Z,2.13
2023-02-25T14:43:01.831Z,1.80
2023-02-25T14:45:43.835Z,1.80
2023-02-25T14:48:38.821Z,1.83
2023-02-25T14:51:31.642Z,1.80
2023-02-25T14:54:16.815Z,2.40
2023-02-25T14:56:54.145Z,1.67
2023-02-25T15:00:15.821Z,1.55
2023-02-25T15:03:19.805Z,1.80
2023-02-25T15:06:15.800Z,1.50
2023-02-25T15:08:57.828Z,1.33
2023-02-25T15:11:55.831Z,1.67
2023-02-25T15:14:53.999Z,1.75
2023-02-25T15:17:57.098Z,2.08
2023-02-25T15:20:40.606Z,1.40
2023-02-25T15:23:22.868Z,3.10
2023-02-25T15:26:25.120Z,1.75
2023-02-25T15:29:01.902Z,1.52
2023-02-25T15:31:34.241Z,1.55
2023-02-25T15:37:25.797Z,1.70
2023-02-25T15:40:02.039Z,1.55
2023-02-25T15:42:53.992Z,1.08
2023-02-25T15:45:33.173Z,1.48
2023-02-25T15:48:17.291Z,1.65
2023-02-25T15:50:51.017Z,1.50
2023-02-25T15:53:24.750Z,1.35
2023-02-25T15:55:59.905Z,1.45
2023-02-25T15:58:26.642Z,1.33
2023-02-25T16:01:48.998Z,1.45
2023-02-25T16:04:54.906Z,1.70
2023-02-25T16:07:28.481Z,1.20
2023-02-25T16:10:09.929Z,1.25
2023-02-25T16:12:41.660Z,1.50
2023-02-25T16:15:23.960Z,1.45
2023-02-25T16:17:52.714Z,1.20
2023-02-25T16:20:35.920Z,1.17
2023-02-25T16:23:17.947Z,2.05
2023-02-25T16:25:59.768Z,1.80
2023-02-25T16:28:52.970Z,1.52
2023-02-25T16:32:08.095Z,1.33
2023-02-25T16:34:54.293Z,1.60
2023-02-25T16:37:56.990Z,1.77
2023-02-25T16:40:31.476Z,1.45
2023-02-25T16:43:13.054Z,1.30
2023-02-25T16:45:45.025Z,1.50
2023-02-25T16:48:34.015Z,1.23
2023-02-25T16:51:29.024Z,1.13
2023-02-25T16:54:06.043Z,1.45
2023-02-25T16:56:33.507Z,1.10
2023-02-25T16:59:22.003Z,1.40
2023-02-25T17:01:57.369Z,1.40
2023-02-25T17:04:41.061Z,1.30
2023-02-25T17:07:13.448Z,1.20
2023-02-25T17:10:08.025Z,1.38
2023-02-25T17:12:52.032Z,1.00
2023-02-25T17:15:34.009Z,1.50
2023-02-25T17:18:31.281Z,1.83
2023-02-25T17:21:30.051Z,1.60
2023-02-25T17:23:58.952Z,2.03
2023-02-25T17:26:33.050Z,1.60
2023-02-25T17:29:01.968Z,1.55
2023-02-25T17:31:37.115Z,1.52
2023-02-25T17:34:11.117Z,1.40
2023-02-25T17:36:46.095Z,1.40
2023-02-25T17:39:26.060Z,1.55
2023-02-25T17:41:53.375Z,1.17
2023-02-25T17:44:51.036Z,1.73
2023-02-25T17:47:32.093Z,1.30
2023-02-25T17:50:10.523Z,1.30
2023-02-25T17:52:47.108Z,1.13
2023-02-25T17:55:35.012Z,1.67
2023-02-25T17:58:10.076Z,1.65
2023-02-25T18:01:00.075Z,1.23
2023-02-25T18:03:38.221Z,2.05
2023-02-25T18:06:27.414Z,2.70
2023-02-25T18:09:02.742Z,2.60
2023-02-25T18:11:29.825Z,2.50
2023-02-25T18:14:04.149Z,2.55
2023-02-25T18:16:38.517Z,1.98
2023-02-25T18:19:37.146Z,2.47
2023-02-25T18:22:05.856Z,1.60
2023-02-25T18:24:41.113Z,2.20
2023-02-25T18:27:13.791Z,2.90
2023-02-25T18:29:47.161Z,3.08
2023-02-25T18:32:22.166Z,3.33
2023-02-25T18:34:48.929Z,2.70
2023-02-25T18:37:25.157Z,2.65
2023-02-25T18:39:52.048Z,2.72
2023-02-25T18:42:31.152Z,2.17
2023-02-25T18:44:57.917Z,2.08
2023-02-25T18:47:31.158Z,1.80
2023-02-25T18:49:57.953Z,1.73
2023-02-25T18:52:32.174Z,2.58
2023-02-25T18:55:05.190Z,3.03
2023-02-25T18:57:38.206Z,2.88
2023-02-25T19:00:05.682Z,3.60
2023-02-25T19:02:43.237Z,3.70
2023-02-25T19:05:19.239Z,4.53
2023-02-25T19:07:57.454Z,3.78
2023-02-25T19:10:45.168Z,3.25
2023-02-25T19:13:39.212Z,2.83
2023-02-25T19:16:13.265Z,3.17
2023-02-25T19:18:49.282Z,2.90
2023-02-25T19:21:18.889Z,3.47
2023-02-25T19:23:53.213Z,4.28
2023-02-25T19:26:27.506Z,4.18
2023-02-25T19:29:01.242Z,3.85
2023-02-25T19:31:34.307Z,3.67
2023-02-25T19:34:07.509Z,3.50
2023-02-25T19:36:34.371Z,3.08
2023-02-25T19:39:07.281Z,3.25
2023-02-25T19:41:34.065Z,2.53
2023-02-25T19:44:07.223Z,3.08
2023-02-25T19:46:39.409Z,2.97
2023-02-25T19:49:13.263Z,2.53
2023-02-25T19:51:42.201Z,2.58
2023-02-25T19:54:09.123Z,3.10
2023-02-25T19:56:42.275Z,2.70
2023-02-25T19:59:11.793Z,2.80
2023-02-25T20:01:39.304Z,3.30
2023-02-25T20:04:13.303Z,3.20
2023-02-25T20:06:40.079Z,2.78
2023-02-25T20:09:16.283Z,3.33
2023-02-25T20:11:46.227Z,4.55
2023-02-25T20:14:21.322Z,4.03
2023-02-25T20:16:48.521Z,5.20
2023-02-25T20:19:15.486Z,4.80
2023-02-25T20:21:49.365Z,6.20
2023-02-25T20:24:22.325Z,5.03
2023-02-25T20:26:55.298Z,5.63
2023-02-25T20:29:29.338Z,4.95
2023-02-25T20:32:03.492Z,5.32
2023-02-25T20:34:38.351Z,4.82
2023-02-25T20:37:28.382Z,4.70
2023-02-25T20:40:08.405Z,4.90
2023-02-25T20:42:49.386Z,3.67
2023-02-25T20:45:16.586Z,3.83
2023-02-25T20:47:50.345Z,4.10
2023-02-25T20:50:22.316Z,3.85
2023-02-25T20:53:01.353Z,3.33
2023-02-25T20:55:36.392Z,2.92
2023-02-25T20:58:06.392Z,2.92
2023-02-25T21:00:41.372Z,2.50
2023-02-25T21:03:10.151Z,2.90
2023-02-25T21:05:43.398Z,3.42
2023-02-25T21:08:15.530Z,3.15
2023-02-25T21:10:49.421Z,2.95
2023-02-25T21:13:16.486Z,2.45
2023-02-25T21:15:50.409Z,2.75
2023-02-25T21:18:25.376Z,3.30
2023-02-25T21:20:58.195Z,3.25
2023-02-25T21:23:33.400Z,2.92
2023-02-25T21:26:01.328Z,3.17
2023-02-25T21:28:35.404Z,3.58
2023-02-25T21:31:08.896Z,3.83
2023-02-25T21:33:43.405Z,4.22
2023-02-25T21:36:13.591Z,4.30
2023-02-25T21:38:47.489Z,4.40
2023-02-25T21:41:15.323Z,4.50
2023-02-25T21:43:51.425Z,4.47
2023-02-25T21:46:18.373Z,4.85
2023-02-25T21:48:57.467Z,4.32
2023-02-25T21:51:26.336Z,4.20
2023-02-25T21:54:04.471Z,3.67
2023-02-25T21:56:31.708Z,4.53
2023-02-25T21:59:07.489Z,3.72
2023-02-25T22:01:43.509Z,3.50
2023-02-25T22:04:17.514Z,3.58
2023-02-25T22:06:47.020Z,2.80
2023-02-25T22:09:20.461Z,2.92
2023-02-25T22:11:47.306Z,2.55
2023-02-25T22:14:20.511Z,2.70
2023-02-25T22:16:47.364Z,2.60
2023-02-25T22:19:20.475Z,3.33
2023-02-25T22:21:47.294Z,2.67
2023-02-25T22:24:20.536Z,2.38
2023-02-25T22:26:48.314Z,2.42
2023-02-25T22:29:21.572Z,2.38
2023-02-25T22:31:55.685Z,2.50
2023-02-25T22:34:22.598Z,2.30
2023-02-25T22:36:56.531Z,1.95
2023-02-25T22:39:23.366Z,1.98
2023-02-25T22:41:56.506Z,1.70
2023-02-25T22:44:23.399Z,2.00
2023-02-25T22:47:06.580Z,1.83
2023-02-25T22:49:33.382Z,1.50
2023-02-25T22:52:16.504Z,2.00
2023-02-25T22:54:43.383Z,2.08
2023-02-25T22:57:16.528Z,2.10
2023-02-25T22:59:43.354Z,1.60
2023-02-25T23:02:16.568Z,2.00
2023-02-25T23:04:43.870Z,1.92
2023-02-25T23:07:18.564Z,1.88
2023-02-25T23:09:45.823Z,1.88
2023-02-25T23:12:21.318Z,2.20
2023-02-25T23:14:48.247Z,1.88
2023-02-25T23:17:15.002Z,2.25
2023-02-25T23:19:48.755Z,2.10
2023-02-25T23:22:23.201Z,2.30
2023-02-25T23:24:56.564Z,2.17
2023-02-25T23:27:31.615Z,2.05
2023-02-25T23:30:04.619Z,2.30
2023-02-25T23:32:43.223Z,2.17
2023-02-25T23:35:17.672Z,2.10
2023-02-25T23:37:47.035Z,2.30
2023-02-25T23:40:20.851Z,2.50
2023-02-25T23:42:47.881Z,1.73
2023-02-25T23:45:21.658Z,1.92
2023-02-25T23:47:48.583Z,2.00
2023-02-25T23:50:23.608Z,2.05
2023-02-25T23:52:50.885Z,2.20
2023-02-25T23:55:18.139Z,2.10
2023-02-25T23:57:51.926Z,2.08
